sensor_id;sensor_type;location;lat;lon;timestamp;temperature;humidity
66096;SHT31;53861;53.422;14.530;2022-07-17T00:00:44;13.82;78.01
66096;SHT31;53861;53.422;14.530;2022-07-17T00:03:13;13.78;78.19
66096;SHT31;53861;53.422;14.530;2022-07-17T00:05:41;13.79;80.38
66096;SHT31;53861;53.422;14.530;2022-07-17T00:08:09;13.68;78.77
66096;SHT31;53861;53.422;14.530;2022-07-17T00:10:39;13.74;79.62
66096;SHT31;53861;53.422;14.530;2022-07-17T00:13:08;13.69;79.56
66096;SHT31;53861;53.422;14.530;2022-07-17T00:15:37;13.72;79.76
66096;SHT31;53861;53.422;14.530;2022-07-17T00:18:05;13.72;80.11
66096;SHT31;53861;53.422;14.530;2022-07-17T00:20:34;13.71;80.99
66096;SHT31;53861;53.422;14.530;2022-07-17T00:23:02;13.64;78.89
66096;SHT31;53861;53.422;14.530;2022-07-17T00:25:29;13.62;80.72
66096;SHT31;53861;53.422;14.530;2022-07-17T00:27:58;13.51;79.58
66096;SHT31;53861;53.422;14.530;2022-07-17T00:30:25;13.51;80.78
66096;SHT31;53861;53.422;14.530;2022-07-17T00:32:54;13.54;81.28
66096;SHT31;53861;53.422;14.530;2022-07-17T00:35:22;13.47;80.21
66096;SHT31;53861;53.422;14.530;2022-07-17T00:37:50;13.48;81.41
66096;SHT31;53861;53.422;14.530;2022-07-17T00:40:19;13.50;82.06
66096;SHT31;53861;53.422;14.530;2022-07-17T00:42:48;13.37;81.77
66096;SHT31;53861;53.422;14.530;2022-07-17T00:45:16;13.34;82.04
66096;SHT31;53861;53.422;14.530;2022-07-17T00:47:50;13.31;81.06
66096;SHT31;53861;53.422;14.530;2022-07-17T00:50:23;13.28;82.28
66096;SHT31;53861;53.422;14.530;2022-07-17T00:52:51;13.20;82.36
66096;SHT31;53861;53.422;14.530;2022-07-17T00:55:19;13.07;82.71
66096;SHT31;53861;53.422;14.530;2022-07-17T00:57:48;12.92;82.96
66096;SHT31;53861;53.422;14.530;2022-07-17T01:00:16;12.87;83.45
66096;SHT31;53861;53.422;14.530;2022-07-17T01:02:46;12.77;83.61
66096;SHT31;53861;53.422;14.530;2022-07-17T01:05:14;12.67;84.08
66096;SHT31;53861;53.422;14.530;2022-07-17T01:07:44;12.59;83.93
66096;SHT31;53861;53.422;14.530;2022-07-17T01:10:13;12.53;83.83
66096;SHT31;53861;53.422;14.530;2022-07-17T01:12:43;12.52;84.98
66096;SHT31;53861;53.422;14.530;2022-07-17T01:15:10;12.39;85.26
66096;SHT31;53861;53.422;14.530;2022-07-17T01:17:38;12.32;84.29
66096;SHT31;53861;53.422;14.530;2022-07-17T01:20:08;12.36;85.70
66096;SHT31;53861;53.422;14.530;2022-07-17T01:22:41;12.38;85.37
66096;SHT31;53861;53.422;14.530;2022-07-17T01:25:09;12.26;84.35
66096;SHT31;53861;53.422;14.530;2022-07-17T01:27:37;12.17;84.10
66096;SHT31;53861;53.422;14.530;2022-07-17T01:30:06;12.14;84.96
66096;SHT31;53861;53.422;14.530;2022-07-17T01:32:35;12.06;84.86
66096;SHT31;53861;53.422;14.530;2022-07-17T01:35:04;12.08;85.59
66096;SHT31;53861;53.422;14.530;2022-07-17T01:37:32;12.02;85.07
66096;SHT31;53861;53.422;14.530;2022-07-17T01:40:01;11.99;85.14
66096;SHT31;53861;53.422;14.530;2022-07-17T01:42:29;12.02;86.07
66096;SHT31;53861;53.422;14.530;2022-07-17T01:44:57;12.02;85.82
66096;SHT31;53861;53.422;14.530;2022-07-17T01:47:25;12.05;86.36
66096;SHT31;53861;53.422;14.530;2022-07-17T01:49:54;11.91;85.51
66096;SHT31;53861;53.422;14.530;2022-07-17T01:52:24;11.80;86.20
66096;SHT31;53861;53.422;14.530;2022-07-17T01:54:52;11.84;87.38
66096;SHT31;53861;53.422;14.530;2022-07-17T01:57:21;11.84;86.60
66096;SHT31;53861;53.422;14.530;2022-07-17T01:59:49;11.70;86.78
66096;SHT31;53861;53.422;14.530;2022-07-17T02:02:17;11.60;86.89
66096;SHT31;53861;53.422;14.530;2022-07-17T02:04:44;11.47;86.98
66096;SHT31;53861;53.422;14.530;2022-07-17T02:07:13;11.59;87.58
66096;SHT31;53861;53.422;14.530;2022-07-17T02:09:40;11.61;87.27
66096;SHT31;53861;53.422;14.530;2022-07-17T02:12:08;11.53;86.91
66096;SHT31;53861;53.422;14.530;2022-07-17T02:14:37;11.54;86.80
66096;SHT31;53861;53.422;14.530;2022-07-17T02:17:04;11.51;87.11
66096;SHT31;53861;53.422;14.530;2022-07-17T02:19:32;11.50;86.89
66096;SHT31;53861;53.422;14.530;2022-07-17T02:21:59;11.53;86.71
66096;SHT31;53861;53.422;14.530;2022-07-17T02:24:27;11.61;87.21
66096;SHT31;53861;53.422;14.530;2022-07-17T02:26:54;11.43;86.52
66096;SHT31;53861;53.422;14.530;2022-07-17T02:29:22;11.40;87.13
66096;SHT31;53861;53.422;14.530;2022-07-17T02:31:51;11.37;86.62
66096;SHT31;53861;53.422;14.530;2022-07-17T02:34:18;11.36;87.37
66096;SHT31;53861;53.422;14.530;2022-07-17T02:36:47;11.31;86.90
66096;SHT31;53861;53.422;14.530;2022-07-17T02:39:14;11.36;87.90
66096;SHT31;53861;53.422;14.530;2022-07-17T02:41:42;11.27;87.73
66096;SHT31;53861;53.422;14.530;2022-07-17T02:44:09;11.29;87.92
66096;SHT31;53861;53.422;14.530;2022-07-17T02:46:37;11.20;87.89
66096;SHT31;53861;53.422;14.530;2022-07-17T02:49:06;11.15;87.75
66096;SHT31;53861;53.422;14.530;2022-07-17T02:51:34;11.10;87.76
66096;SHT31;53861;53.422;14.530;2022-07-17T02:54:01;11.03;87.91
66096;SHT31;53861;53.422;14.530;2022-07-17T02:56:29;11.05;87.53
66096;SHT31;53861;53.422;14.530;2022-07-17T02:58:57;10.85;87.60
66096;SHT31;53861;53.422;14.530;2022-07-17T03:01:24;10.92;88.30
66096;SHT31;53861;53.422;14.530;2022-07-17T03:03:52;10.93;88.49
66096;SHT31;53861;53.422;14.530;2022-07-17T03:06:21;10.86;88.64
66096;SHT31;53861;53.422;14.530;2022-07-17T03:08:49;10.76;88.00
66096;SHT31;53861;53.422;14.530;2022-07-17T03:11:16;10.78;88.61
66096;SHT31;53861;53.422;14.530;2022-07-17T03:13:44;10.83;88.96
66096;SHT31;53861;53.422;14.530;2022-07-17T03:16:11;10.72;87.98
66096;SHT31;53861;53.422;14.530;2022-07-17T03:18:39;10.71;88.57
66096;SHT31;53861;53.422;14.530;2022-07-17T03:21:06;10.72;88.71
66096;SHT31;53861;53.422;14.530;2022-07-17T03:23:35;10.65;88.28
66096;SHT31;53861;53.422;14.530;2022-07-17T03:26:03;10.79;88.24
66096;SHT31;53861;53.422;14.530;2022-07-17T03:28:30;10.78;88.49
66096;SHT31;53861;53.422;14.530;2022-07-17T03:30:58;10.79;88.75
66096;SHT31;53861;53.422;14.530;2022-07-17T03:33:25;10.85;88.63
66096;SHT31;53861;53.422;14.530;2022-07-17T03:35:53;10.80;88.60
66096;SHT31;53861;53.422;14.530;2022-07-17T03:38:22;10.83;88.58
66096;SHT31;53861;53.422;14.530;2022-07-17T03:40:51;10.82;88.98
66096;SHT31;53861;53.422;14.530;2022-07-17T03:43:18;10.80;88.37
66096;SHT31;53861;53.422;14.530;2022-07-17T03:45:46;10.83;89.03
66096;SHT31;53861;53.422;14.530;2022-07-17T03:48:14;10.85;88.51
66096;SHT31;53861;53.422;14.530;2022-07-17T03:50:42;10.82;88.60
66096;SHT31;53861;53.422;14.530;2022-07-17T03:53:09;10.89;88.81
66096;SHT31;53861;53.422;14.530;2022-07-17T03:55:37;10.96;88.73
66096;SHT31;53861;53.422;14.530;2022-07-17T03:58:06;11.13;88.98
66096;SHT31;53861;53.422;14.530;2022-07-17T04:00:34;11.27;88.81
66096;SHT31;53861;53.422;14.530;2022-07-17T04:03:02;11.20;88.77
66096;SHT31;53861;53.422;14.530;2022-07-17T04:05:29;11.27;86.70
66096;SHT31;53861;53.422;14.530;2022-07-17T04:07:57;11.36;86.54
66096;SHT31;53861;53.422;14.530;2022-07-17T04:10:25;11.57;87.12
66096;SHT31;53861;53.422;14.530;2022-07-17T04:12:53;11.64;86.96
66096;SHT31;53861;53.422;14.530;2022-07-17T04:15:22;11.73;87.43
66096;SHT31;53861;53.422;14.530;2022-07-17T04:18:03;11.80;87.53
66096;SHT31;53861;53.422;14.530;2022-07-17T04:20:31;11.81;86.01
66096;SHT31;53861;53.422;14.530;2022-07-17T04:22:59;12.05;86.47
66096;SHT31;53861;53.422;14.530;2022-07-17T04:25:26;12.25;85.80
66096;SHT31;53861;53.422;14.530;2022-07-17T04:27:54;12.65;86.59
66096;SHT31;53861;53.422;14.530;2022-07-17T04:30:23;12.87;86.02
66096;SHT31;53861;53.422;14.530;2022-07-17T04:32:50;12.82;81.11
66096;SHT31;53861;53.422;14.530;2022-07-17T04:35:18;13.04;85.06
66096;SHT31;53861;53.422;14.530;2022-07-17T04:37:46;13.10;82.84
66096;SHT31;53861;53.422;14.530;2022-07-17T04:40:14;13.10;81.10
66096;SHT31;53861;53.422;14.530;2022-07-17T04:42:41;13.08;82.07
66096;SHT31;53861;53.422;14.530;2022-07-17T04:45:09;13.03;82.83
66096;SHT31;53861;53.422;14.530;2022-07-17T04:47:39;13.04;82.08
66096;SHT31;53861;53.422;14.530;2022-07-17T04:50:08;13.06;81.66
66096;SHT31;53861;53.422;14.530;2022-07-17T04:52:36;13.08;84.55
66096;SHT31;53861;53.422;14.530;2022-07-17T04:55:05;13.26;83.96
66096;SHT31;53861;53.422;14.530;2022-07-17T04:57:32;13.36;79.67
66096;SHT31;53861;53.422;14.530;2022-07-17T05:00:00;13.61;78.80
66096;SHT31;53861;53.422;14.530;2022-07-17T05:02:28;13.75;79.53
66096;SHT31;53861;53.422;14.530;2022-07-17T05:04:57;13.83;77.72
66096;SHT31;53861;53.422;14.530;2022-07-17T05:07:25;13.97;79.00
66096;SHT31;53861;53.422;14.530;2022-07-17T05:09:52;14.05;79.38
66096;SHT31;53861;53.422;14.530;2022-07-17T05:12:20;14.15;80.69
66096;SHT31;53861;53.422;14.530;2022-07-17T05:14:48;14.20;81.11
66096;SHT31;53861;53.422;14.530;2022-07-17T05:17:16;14.29;77.40
66096;SHT31;53861;53.422;14.530;2022-07-17T05:19:43;14.46;77.27
66096;SHT31;53861;53.422;14.530;2022-07-17T05:22:12;14.46;77.05
66096;SHT31;53861;53.422;14.530;2022-07-17T05:24:40;14.55;76.18
66096;SHT31;53861;53.422;14.530;2022-07-17T05:27:07;14.51;77.18
66096;SHT31;53861;53.422;14.530;2022-07-17T05:29:35;14.46;77.57
66096;SHT31;53861;53.422;14.530;2022-07-17T05:32:04;14.56;78.01
66096;SHT31;53861;53.422;14.530;2022-07-17T05:34:32;14.74;77.62
66096;SHT31;53861;53.422;14.530;2022-07-17T05:37:02;14.64;75.12
66096;SHT31;53861;53.422;14.530;2022-07-17T05:39:31;14.79;76.39
66096;SHT31;53861;53.422;14.530;2022-07-17T05:41:58;14.92;79.03
66096;SHT31;53861;53.422;14.530;2022-07-17T05:44:26;14.87;76.34
66096;SHT31;53861;53.422;14.530;2022-07-17T05:46:54;14.77;74.94
66096;SHT31;53861;53.422;14.530;2022-07-17T05:49:21;14.97;79.08
66096;SHT31;53861;53.422;14.530;2022-07-17T05:51:49;15.12;75.34
66096;SHT31;53861;53.422;14.530;2022-07-17T05:54:17;15.31;77.85
66096;SHT31;53861;53.422;14.530;2022-07-17T05:56:46;15.44;75.19
66096;SHT31;53861;53.422;14.530;2022-07-17T05:59:15;15.63;73.18
66096;SHT31;53861;53.422;14.530;2022-07-17T06:01:42;15.63;73.74
66096;SHT31;53861;53.422;14.530;2022-07-17T06:04:10;15.85;73.62
66096;SHT31;53861;53.422;14.530;2022-07-17T06:06:37;15.97;76.98
66096;SHT31;53861;53.422;14.530;2022-07-17T06:09:05;15.95;73.18
66096;SHT31;53861;53.422;14.530;2022-07-17T06:11:33;16.07;73.33
66096;SHT31;53861;53.422;14.530;2022-07-17T06:14:03;16.16;73.36
66096;SHT31;53861;53.422;14.530;2022-07-17T06:16:30;15.99;70.77
66096;SHT31;53861;53.422;14.530;2022-07-17T06:18:58;16.13;71.67
66096;SHT31;53861;53.422;14.530;2022-07-17T06:21:26;16.28;70.00
66096;SHT31;53861;53.422;14.530;2022-07-17T06:23:53;16.53;71.29
66096;SHT31;53861;53.422;14.530;2022-07-17T06:26:21;16.71;69.13
66096;SHT31;53861;53.422;14.530;2022-07-17T06:28:49;16.46;71.66
66096;SHT31;53861;53.422;14.530;2022-07-17T06:31:21;16.37;70.90
66096;SHT31;53861;53.422;14.530;2022-07-17T06:33:49;16.46;71.20
66096;SHT31;53861;53.422;14.530;2022-07-17T06:36:16;16.40;69.88
66096;SHT31;53861;53.422;14.530;2022-07-17T06:38:44;16.81;68.17
66096;SHT31;53861;53.422;14.530;2022-07-17T06:41:12;17.09;65.95
66096;SHT31;53861;53.422;14.530;2022-07-17T06:43:39;17.08;66.11
66096;SHT31;53861;53.422;14.530;2022-07-17T06:46:07;16.99;67.08
66096;SHT31;53861;53.422;14.530;2022-07-17T06:48:36;16.84;66.21
66096;SHT31;53861;53.422;14.530;2022-07-17T06:51:04;16.85;67.73
66096;SHT31;53861;53.422;14.530;2022-07-17T06:53:35;17.09;64.11
66096;SHT31;53861;53.422;14.530;2022-07-17T06:56:03;17.05;64.18
66096;SHT31;53861;53.422;14.530;2022-07-17T06:58:31;16.98;66.51
66096;SHT31;53861;53.422;14.530;2022-07-17T07:00:58;16.89;67.27
66096;SHT31;53861;53.422;14.530;2022-07-17T07:03:26;16.69;67.61
66096;SHT31;53861;53.422;14.530;2022-07-17T07:05:55;16.78;65.24
66096;SHT31;53861;53.422;14.530;2022-07-17T07:08:22;16.84;66.56
66096;SHT31;53861;53.422;14.530;2022-07-17T07:10:50;17.20;64.25
66096;SHT31;53861;53.422;14.530;2022-07-17T07:13:18;17.16;67.59
66096;SHT31;53861;53.422;14.530;2022-07-17T07:15:46;17.11;64.48
66096;SHT31;53861;53.422;14.530;2022-07-17T07:18:14;16.98;64.63
66096;SHT31;53861;53.422;14.530;2022-07-17T07:20:41;16.96;64.69
66096;SHT31;53861;53.422;14.530;2022-07-17T07:23:11;16.94;63.62
66096;SHT31;53861;53.422;14.530;2022-07-17T07:25:38;17.11;64.25
66096;SHT31;53861;53.422;14.530;2022-07-17T07:28:06;17.60;61.36
66096;SHT31;53861;53.422;14.530;2022-07-17T07:30:34;17.59;61.48
66096;SHT31;53861;53.422;14.530;2022-07-17T07:33:01;17.76;63.34
66096;SHT31;53861;53.422;14.530;2022-07-17T07:35:29;18.02;61.35
66096;SHT31;53861;53.422;14.530;2022-07-17T07:37:57;18.07;63.44
66096;SHT31;53861;53.422;14.530;2022-07-17T07:40:26;18.30;62.65
66096;SHT31;53861;53.422;14.530;2022-07-17T07:42:54;18.42;62.46
66096;SHT31;53861;53.422;14.530;2022-07-17T07:45:22;18.86;58.21
66096;SHT31;53861;53.422;14.530;2022-07-17T07:47:52;18.56;63.72
66096;SHT31;53861;53.422;14.530;2022-07-17T07:50:23;18.27;65.00
66096;SHT31;53861;53.422;14.530;2022-07-17T07:52:51;18.35;62.75
66096;SHT31;53861;53.422;14.530;2022-07-17T07:55:19;18.11;62.97
66096;SHT31;53861;53.422;14.530;2022-07-17T07:57:50;18.32;62.64
66096;SHT31;53861;53.422;14.530;2022-07-17T08:00:28;19.13;58.93
66096;SHT31;53861;53.422;14.530;2022-07-17T08:02:56;19.91;56.55
66096;SHT31;53861;53.422;14.530;2022-07-17T08:05:24;19.75;56.55
66096;SHT31;53861;53.422;14.530;2022-07-17T08:07:52;19.61;60.40
66096;SHT31;53861;53.422;14.530;2022-07-17T08:10:20;19.34;62.02
66096;SHT31;53861;53.422;14.530;2022-07-17T08:12:49;19.50;57.02
66096;SHT31;53861;53.422;14.530;2022-07-17T08:15:19;19.60;58.07
66096;SHT31;53861;53.422;14.530;2022-07-17T08:17:48;19.89;58.88
66096;SHT31;53861;53.422;14.530;2022-07-17T08:20:17;19.88;58.59
66096;SHT31;53861;53.422;14.530;2022-07-17T08:22:46;19.66;58.87
66096;SHT31;53861;53.422;14.530;2022-07-17T08:25:14;19.75;58.02
66096;SHT31;53861;53.422;14.530;2022-07-17T08:27:43;20.12;55.92
66096;SHT31;53861;53.422;14.530;2022-07-17T08:30:14;20.39;54.91
66096;SHT31;53861;53.422;14.530;2022-07-17T08:32:43;20.79;54.49
66096;SHT31;53861;53.422;14.530;2022-07-17T08:35:11;20.77;56.45
66096;SHT31;53861;53.422;14.530;2022-07-17T08:37:47;20.53;55.79
66096;SHT31;53861;53.422;14.530;2022-07-17T08:40:20;20.53;57.21
66096;SHT31;53861;53.422;14.530;2022-07-17T08:42:48;20.73;55.83
66096;SHT31;53861;53.422;14.530;2022-07-17T08:45:18;20.26;55.85
66096;SHT31;53861;53.422;14.530;2022-07-17T08:47:46;20.42;55.96
66096;SHT31;53861;53.422;14.530;2022-07-17T08:50:14;19.57;58.92
66096;SHT31;53861;53.422;14.530;2022-07-17T08:52:42;19.75;59.31
66096;SHT31;53861;53.422;14.530;2022-07-17T08:55:11;20.12;57.75
66096;SHT31;53861;53.422;14.530;2022-07-17T08:57:40;20.26;60.88
66096;SHT31;53861;53.422;14.530;2022-07-17T09:00:10;20.50;57.36
66096;SHT31;53861;53.422;14.530;2022-07-17T09:02:40;20.07;57.34
66096;SHT31;53861;53.422;14.530;2022-07-17T09:05:20;20.65;54.58
66096;SHT31;53861;53.422;14.530;2022-07-17T09:07:49;20.24;58.00
66096;SHT31;53861;53.422;14.530;2022-07-17T09:10:17;20.02;59.00
66096;SHT31;53861;53.422;14.530;2022-07-17T09:12:46;19.73;58.67
66096;SHT31;53861;53.422;14.530;2022-07-17T09:15:16;19.71;59.23
66096;SHT31;53861;53.422;14.530;2022-07-17T09:17:55;19.71;58.52
66096;SHT31;53861;53.422;14.530;2022-07-17T09:20:23;20.04;57.16
66096;SHT31;53861;53.422;14.530;2022-07-17T09:22:58;20.17;58.11
66096;SHT31;53861;53.422;14.530;2022-07-17T09:25:33;20.75;59.35
66096;SHT31;53861;53.422;14.530;2022-07-17T09:28:02;20.76;55.45
66096;SHT31;53861;53.422;14.530;2022-07-17T09:30:32;21.04;55.44
66096;SHT31;53861;53.422;14.530;2022-07-17T09:33:01;21.17;54.04
66096;SHT31;53861;53.422;14.530;2022-07-17T09:35:29;22.08;56.99
66096;SHT31;53861;53.422;14.530;2022-07-17T09:37:57;22.64;50.89
66096;SHT31;53861;53.422;14.530;2022-07-17T09:40:24;23.80;50.28
66096;SHT31;53861;53.422;14.530;2022-07-17T09:43:09;23.28;47.70
66096;SHT31;53861;53.422;14.530;2022-07-17T09:45:36;23.29;54.91
66096;SHT31;53861;53.422;14.530;2022-07-17T09:48:06;23.08;50.15
66096;SHT31;53861;53.422;14.530;2022-07-17T09:50:36;22.97;52.05
66096;SHT31;53861;53.422;14.530;2022-07-17T09:53:05;23.35;48.25
66096;SHT31;53861;53.422;14.530;2022-07-17T09:55:36;23.07;50.62
66096;SHT31;53861;53.422;14.530;2022-07-17T09:58:05;22.83;51.11
66096;SHT31;53861;53.422;14.530;2022-07-17T10:00:35;22.80;50.12
66096;SHT31;53861;53.422;14.530;2022-07-17T10:03:04;22.43;52.74
66096;SHT31;53861;53.422;14.530;2022-07-17T10:05:33;22.70;49.06
66096;SHT31;53861;53.422;14.530;2022-07-17T10:08:00;22.44;48.64
66096;SHT31;53861;53.422;14.530;2022-07-17T10:10:28;22.60;55.42
66096;SHT31;53861;53.422;14.530;2022-07-17T10:12:56;23.70;49.76
66096;SHT31;53861;53.422;14.530;2022-07-17T10:15:25;23.76;47.67
66096;SHT31;53861;53.422;14.530;2022-07-17T10:18:05;23.88;47.90
66096;SHT31;53861;53.422;14.530;2022-07-17T10:20:34;23.01;48.81
66096;SHT31;53861;53.422;14.530;2022-07-17T10:23:12;23.37;49.56
66096;SHT31;53861;53.422;14.530;2022-07-17T10:25:40;23.55;48.16
66096;SHT31;53861;53.422;14.530;2022-07-17T10:28:08;22.94;51.84
66096;SHT31;53861;53.422;14.530;2022-07-17T10:30:41;23.69;47.11
66096;SHT31;53861;53.422;14.530;2022-07-17T10:33:15;24.65;46.33
66096;SHT31;53861;53.422;14.530;2022-07-17T10:35:46;25.96;46.53
66096;SHT31;53861;53.422;14.530;2022-07-17T10:38:15;26.38;43.84
66096;SHT31;53861;53.422;14.530;2022-07-17T10:40:42;26.79;46.46
66096;SHT31;53861;53.422;14.530;2022-07-17T10:43:11;27.32;45.89
66096;SHT31;53861;53.422;14.530;2022-07-17T10:45:40;28.12;41.21
66096;SHT31;53861;53.422;14.530;2022-07-17T10:48:12;28.20;41.93
66096;SHT31;53861;53.422;14.530;2022-07-17T10:50:42;28.88;41.06
66096;SHT31;53861;53.422;14.530;2022-07-17T10:53:13;27.96;39.38
66096;SHT31;53861;53.422;14.530;2022-07-17T10:55:44;27.12;42.15
66096;SHT31;53861;53.422;14.530;2022-07-17T10:58:20;27.10;42.90
66096;SHT31;53861;53.422;14.530;2022-07-17T11:01:03;27.67;43.50
66096;SHT31;53861;53.422;14.530;2022-07-17T11:03:36;28.08;40.69
66096;SHT31;53861;53.422;14.530;2022-07-17T11:06:13;28.39;40.69
66096;SHT31;53861;53.422;14.530;2022-07-17T11:08:47;27.20;45.80
66096;SHT31;53861;53.422;14.530;2022-07-17T11:11:18;27.59;42.48
66096;SHT31;53861;53.422;14.530;2022-07-17T11:13:49;27.74;41.18
66096;SHT31;53861;53.422;14.530;2022-07-17T11:16:27;27.90;42.18
66096;SHT31;53861;53.422;14.530;2022-07-17T11:18:56;28.41;41.19
66096;SHT31;53861;53.422;14.530;2022-07-17T11:21:25;28.34;40.56
66096;SHT31;53861;53.422;14.530;2022-07-17T11:23:54;29.33;36.61
66096;SHT31;53861;53.422;14.530;2022-07-17T11:26:22;29.80;38.29
66096;SHT31;53861;53.422;14.530;2022-07-17T11:28:50;29.57;40.36
66096;SHT31;53861;53.422;14.530;2022-07-17T11:31:20;29.13;39.85
66096;SHT31;53861;53.422;14.530;2022-07-17T11:33:52;28.27;42.42
66096;SHT31;53861;53.422;14.530;2022-07-17T11:36:27;27.77;39.78
66096;SHT31;53861;53.422;14.530;2022-07-17T11:38:58;28.37;41.05
66096;SHT31;53861;53.422;14.530;2022-07-17T11:41:34;28.11;42.03
66096;SHT31;53861;53.422;14.530;2022-07-17T11:44:03;26.56;43.74
66096;SHT31;53861;53.422;14.530;2022-07-17T11:46:32;25.22;45.61
66096;SHT31;53861;53.422;14.530;2022-07-17T11:49:00;25.12;45.49
66096;SHT31;53861;53.422;14.530;2022-07-17T11:51:41;25.01;50.75
66096;SHT31;53861;53.422;14.530;2022-07-17T11:54:11;25.84;44.85
66096;SHT31;53861;53.422;14.530;2022-07-17T11:56:40;26.07;46.57
66096;SHT31;53861;53.422;14.530;2022-07-17T11:59:09;25.39;44.95
66096;SHT31;53861;53.422;14.530;2022-07-17T12:01:42;25.12;45.85
66096;SHT31;53861;53.422;14.530;2022-07-17T12:04:12;25.52;44.37
66096;SHT31;53861;53.422;14.530;2022-07-17T12:06:41;26.47;45.16
66096;SHT31;53861;53.422;14.530;2022-07-17T12:09:08;26.75;42.93
66096;SHT31;53861;53.422;14.530;2022-07-17T12:11:46;26.68;44.51
66096;SHT31;53861;53.422;14.530;2022-07-17T12:14:15;27.00;42.30
66096;SHT31;53861;53.422;14.530;2022-07-17T12:16:42;26.45;42.57
66096;SHT31;53861;53.422;14.530;2022-07-17T12:19:12;25.26;44.69
66096;SHT31;53861;53.422;14.530;2022-07-17T12:21:53;26.23;48.91
66096;SHT31;53861;53.422;14.530;2022-07-17T12:24:25;26.41;41.34
66096;SHT31;53861;53.422;14.530;2022-07-17T12:26:56;27.05;47.75
66096;SHT31;53861;53.422;14.530;2022-07-17T12:29:24;26.59;41.61
66096;SHT31;53861;53.422;14.530;2022-07-17T12:32:03;25.87;44.94
66096;SHT31;53861;53.422;14.530;2022-07-17T12:34:33;26.04;47.62
66096;SHT31;53861;53.422;14.530;2022-07-17T12:37:03;26.28;44.26
66096;SHT31;53861;53.422;14.530;2022-07-17T12:39:32;25.59;44.59
66096;SHT31;53861;53.422;14.530;2022-07-17T12:42:00;25.77;43.10
66096;SHT31;53861;53.422;14.530;2022-07-17T12:44:30;25.92;44.42
66096;SHT31;53861;53.422;14.530;2022-07-17T12:46:58;26.24;45.57
66096;SHT31;53861;53.422;14.530;2022-07-17T12:49:26;26.14;45.02
66096;SHT31;53861;53.422;14.530;2022-07-17T12:51:54;26.62;45.42
66096;SHT31;53861;53.422;14.530;2022-07-17T12:54:24;26.62;45.82
66096;SHT31;53861;53.422;14.530;2022-07-17T12:56:52;26.12;42.44
66096;SHT31;53861;53.422;14.530;2022-07-17T12:59:21;26.14;40.31
66096;SHT31;53861;53.422;14.530;2022-07-17T13:01:48;26.31;43.32
66096;SHT31;53861;53.422;14.530;2022-07-17T13:04:16;26.13;38.48
66096;SHT31;53861;53.422;14.530;2022-07-17T13:06:47;26.48;46.31
66096;SHT31;53861;53.422;14.530;2022-07-17T13:09:15;26.56;44.94
66096;SHT31;53861;53.422;14.530;2022-07-17T13:11:46;26.56;45.03
66096;SHT31;53861;53.422;14.530;2022-07-17T13:14:18;26.49;41.69
66096;SHT31;53861;53.422;14.530;2022-07-17T13:16:45;26.23;41.30
66096;SHT31;53861;53.422;14.530;2022-07-17T13:19:13;26.18;37.95
66096;SHT31;53861;53.422;14.530;2022-07-17T13:21:41;25.94;39.77
66096;SHT31;53861;53.422;14.530;2022-07-17T13:24:08;25.92;38.83
66096;SHT31;53861;53.422;14.530;2022-07-17T13:26:39;26.33;40.45
66096;SHT31;53861;53.422;14.530;2022-07-17T13:29:08;26.31;38.27
66096;SHT31;53861;53.422;14.530;2022-07-17T13:31:35;26.37;37.86
66096;SHT31;53861;53.422;14.530;2022-07-17T13:34:04;25.94;36.91
66096;SHT31;53861;53.422;14.530;2022-07-17T13:36:31;25.50;36.65
66096;SHT31;53861;53.422;14.530;2022-07-17T13:38:59;25.35;39.94
66096;SHT31;53861;53.422;14.530;2022-07-17T13:41:27;25.76;40.18
66096;SHT31;53861;53.422;14.530;2022-07-17T13:43:54;25.93;40.55
66096;SHT31;53861;53.422;14.530;2022-07-17T13:46:25;25.87;39.41
66096;SHT31;53861;53.422;14.530;2022-07-17T13:48:52;25.93;40.26
66096;SHT31;53861;53.422;14.530;2022-07-17T13:51:20;25.86;42.93
66096;SHT31;53861;53.422;14.530;2022-07-17T13:53:48;25.90;39.95
66096;SHT31;53861;53.422;14.530;2022-07-17T13:56:17;25.89;42.69
66096;SHT31;53861;53.422;14.530;2022-07-17T13:58:44;25.61;40.93
66096;SHT31;53861;53.422;14.530;2022-07-17T14:01:12;25.67;42.50
66096;SHT31;53861;53.422;14.530;2022-07-17T14:03:41;25.58;41.00
66096;SHT31;53861;53.422;14.530;2022-07-17T14:06:10;25.63;39.26
66096;SHT31;53861;53.422;14.530;2022-07-17T14:08:40;25.61;40.19
66096;SHT31;53861;53.422;14.530;2022-07-17T14:11:09;25.43;42.48
66096;SHT31;53861;53.422;14.530;2022-07-17T14:13:37;25.41;40.16
66096;SHT31;53861;53.422;14.530;2022-07-17T14:16:05;25.49;42.06
66096;SHT31;53861;53.422;14.530;2022-07-17T14:18:33;25.54;40.06
66096;SHT31;53861;53.422;14.530;2022-07-17T14:21:03;25.65;40.89
66096;SHT31;53861;53.422;14.530;2022-07-17T14:23:30;25.56;39.28
66096;SHT31;53861;53.422;14.530;2022-07-17T14:25:58;25.76;37.42
66096;SHT31;53861;53.422;14.530;2022-07-17T14:28:26;25.59;37.62
66096;SHT31;53861;53.422;14.530;2022-07-17T14:30:53;25.58;38.21
66096;SHT31;53861;53.422;14.530;2022-07-17T14:33:21;25.22;41.99
66096;SHT31;53861;53.422;14.530;2022-07-17T14:35:49;25.28;40.04
66096;SHT31;53861;53.422;14.530;2022-07-17T14:38:18;24.92;41.30
66096;SHT31;53861;53.422;14.530;2022-07-17T14:40:45;24.82;42.07
66096;SHT31;53861;53.422;14.530;2022-07-17T14:43:13;24.85;38.78
66096;SHT31;53861;53.422;14.530;2022-07-17T14:45:40;24.96;38.46
66096;SHT31;53861;53.422;14.530;2022-07-17T14:48:08;25.05;41.41
66096;SHT31;53861;53.422;14.530;2022-07-17T14:50:37;24.96;39.41
66096;SHT31;53861;53.422;14.530;2022-07-17T14:53:04;25.18;38.74
66096;SHT31;53861;53.422;14.530;2022-07-17T14:55:33;25.01;38.81
66096;SHT31;53861;53.422;14.530;2022-07-17T14:58:01;25.05;39.20
66096;SHT31;53861;53.422;14.530;2022-07-17T15:00:29;25.25;38.77
66096;SHT31;53861;53.422;14.530;2022-07-17T15:02:57;25.25;37.37
66096;SHT31;53861;53.422;14.530;2022-07-17T15:05:34;25.22;38.87
66096;SHT31;53861;53.422;14.530;2022-07-17T15:08:06;25.07;39.37
66096;SHT31;53861;53.422;14.530;2022-07-17T15:10:36;24.92;39.61
66096;SHT31;53861;53.422;14.530;2022-07-17T15:13:04;24.87;40.93
66096;SHT31;53861;53.422;14.530;2022-07-17T15:15:33;24.80;39.86
66096;SHT31;53861;53.422;14.530;2022-07-17T15:18:01;24.81;39.41
66096;SHT31;53861;53.422;14.530;2022-07-17T15:20:30;24.82;39.92
66096;SHT31;53861;53.422;14.530;2022-07-17T15:22:58;24.61;40.25
66096;SHT31;53861;53.422;14.530;2022-07-17T15:25:38;24.60;40.69